Time;durP1;ratioP1;P1;durP2;ratioP2;P2;SDS_P1;SDS_P2;PMS_P1;PMS_P2;Temp;Humidity;BMP_temperature;BMP_pressure;BME280_temperature;BME280_humidity;BME280_pressure;Samples;Min_cycle;Max_cycle;Signal;HPM_P1;HPM_P2
2023/11/02 00:01:57;;;;;;;10.48;7.05;;;;;;;10.29;100.00;92718.91;5070994;28;20053;-85
2023/11/02 00:04:24;;;;;;;9.30;6.18;;;;;;;10.21;100.00;92698.69;5067453;28;20416;-84
2023/11/02 00:06:52;;;;;;;8.93;6.65;;;;;;;10.33;100.00;92719.28;5069090;28;20090;-84
2023/11/02 00:09:40;;;;;;;8.93;6.55;;;;;;;10.00;100.00;92679.47;5070774;28;20515;-86
2023/11/02 00:12:11;;;;;;;9.63;7.18;;;;;;;10.30;100.00;92719.69;5063554;28;20068;-84
2023/11/02 00:14:43;;;;;;;11.88;7.90;;;;;;;10.00;100.00;92680.22;5069095;28;20047;-85
2023/11/02 00:17:50;;;;;;;11.88;8.82;;;;;;;10.22;100.00;92712.28;5067204;28;20060;-85
2023/11/02 00:20:37;;;;;;;10.38;7.47;;;;;;;10.07;100.00;92682.69;5069402;28;20045;-84
2023/11/02 00:23:05;;;;;;;12.75;8.27;;;;;;;10.26;100.00;92703.16;5068754;28;20149;-85
2023/11/02 00:25:56;;;;;;;10.77;7.22;;;;;;;10.31;100.00;92707.66;5070336;28;20048;-83
2023/11/02 00:28:22;;;;;;;8.43;6.35;;;;;;;10.35;100.00;92708.75;5071090;28;20084;-84
2023/11/02 00:30:51;;;;;;;10.45;6.47;;;;;;;10.33;100.00;92709.00;5072235;28;20126;-82
2023/11/02 00:33:19;;;;;;;8.23;6.13;;;;;;;10.34;100.00;92709.75;5069926;28;20053;-82
2023/11/02 00:35:47;;;;;;;9.68;6.57;;;;;;;10.34;100.00;92702.84;5068640;28;20048;-84
2023/11/02 00:38:25;;;;;;;9.05;6.32;;;;;;;10.36;100.00;92692.34;5068281;28;20585;-85
2023/11/02 00:40:52;;;;;;;9.30;6.15;;;;;;;10.15;100.00;92668.78;5071893;28;20463;-86
2023/11/02 00:43:21;;;;;;;8.50;6.00;;;;;;;10.04;100.00;92652.34;5068126;28;20056;-85
2023/11/02 00:45:49;;;;;;;9.63;6.32;;;;;;;10.38;100.00;92711.66;5070617;28;20492;-83
2023/11/02 00:48:19;;;;;;;10.85;6.63;;;;;;;10.22;100.00;92672.03;5068007;28;20068;-80
2023/11/02 00:51:26;;;;;;;8.98;6.60;;;;;;;10.05;100.00;92677.03;5071330;28;20090;-82
2023/11/02 00:53:55;;;;;;;11.18;6.57;;;;;;;10.04;100.00;92713.91;5069512;28;20044;-79
2023/11/02 00:56:24;;;;;;;13.90;7.72;;;;;;;10.05;100.00;92691.63;5071174;28;20048;-82
2023/11/02 00:58:53;;;;;;;11.05;7.13;;;;;;;10.04;100.00;92672.88;5068255;28;20048;-83
2023/11/02 01:01:22;;;;;;;11.13;6.97;;;;;;;9.92;100.00;92647.19;5070306;28;20044;-82
2023/11/02 01:03:54;;;;;;;10.00;7.38;;;;;;;9.56;100.00;92590.66;5063887;28;20126;-84
2023/11/02 01:06:22;;;;;;;10.50;7.15;;;;;;;9.81;100.00;92632.56;5068016;28;20048;-82
2023/11/02 01:08:55;;;;;;;10.18;6.80;;;;;;;9.94;100.00;92652.09;5068036;28;20098;-81
2023/11/02 01:11:25;;;;;;;8.65;7.05;;;;;;;10.15;100.00;92673.91;5069463;28;20390;-81
2023/11/02 01:13:53;;;;;;;10.00;6.93;;;;;;;10.15;100.00;92674.69;5068174;28;20459;-81
2023/11/02 01:16:19;;;;;;;10.85;7.40;;;;;;;10.23;100.00;92665.88;5067794;28;20074;-82
2023/11/02 01:18:47;;;;;;;11.13;7.03;;;;;;;10.10;100.00;92640.44;5067667;28;20043;-81
2023/11/02 01:21:17;;;;;;;10.57;7.05;;;;;;;10.33;100.00;92662.00;5072503;28;20480;-81
2023/11/02 01:23:44;;;;;;;11.15;6.88;;;;;;;10.18;100.00;92645.22;5069040;28;20055;-82
2023/11/02 01:26:46;;;;;;;11.35;7.93;;;;;;;10.29;100.00;92647.03;5067518;28;20056;-81
2023/11/02 01:29:13;;;;;;;10.65;7.30;;;;;;;10.36;100.00;92652.06;5027415;28;20538;-80
2023/11/02 01:31:41;;;;;;;10.45;6.82;;;;;;;10.40;100.00;92649.84;5069233;28;20060;-80
2023/11/02 01:34:07;;;;;;;9.77;6.65;;;;;;;10.36;100.00;92639.22;5066953;28;20640;-81
2023/11/02 01:36:38;;;;;;;12.63;7.50;;;;;;;10.43;100.00;92637.34;5068047;28;20407;-80
2023/11/02 01:39:46;;;;;;;11.68;7.18;;;;;;;10.42;100.00;92645.28;5071792;28;20044;-80
2023/11/02 01:42:23;;;;;;;8.15;6.90;;;;;;;10.32;100.00;92625.25;5067633;28;20459;-80
2023/11/02 01:45:00;;;;;;;11.90;8.10;;;;;;;10.38;100.00;92636.44;5068230;28;20106;-80
2023/11/02 01:47:37;;;;;;;10.80;7.78;;;;;;;10.39;100.00;92645.72;5066479;28;20044;-80
2023/11/02 01:50:12;;;;;;;13.43;8.57;;;;;;;10.32;100.00;92632.19;5072482;28;20053;-81
2023/11/02 01:53:05;;;;;;;14.18;8.25;;;;;;;10.31;100.00;92628.06;5064252;28;20094;-81
2023/11/02 01:55:50;;;;;;;16.85;8.60;;;;;;;10.41;100.00;92644.47;5070033;28;20084;-81
2023/11/02 01:58:53;;;;;;;10.73;7.85;;;;;;;10.44;100.00;92638.16;5064367;28;20102;-80
2023/11/02 02:01:26;;;;;;;11.23;7.43;;;;;;;10.41;100.00;92641.91;5068098;28;20122;-80
2023/11/02 02:04:05;;;;;;;10.55;7.20;;;;;;;10.42;100.00;92638.34;5062353;28;20048;-82
2023/11/02 02:06:47;;;;;;;11.23;7.00;;;;;;;10.40;100.00;92631.84;5067639;28;20080;-82
2023/11/02 02:09:28;;;;;;;10.15;6.75;;;;;;;10.46;100.00;92633.56;5064094;28;20044;-81
2023/11/02 02:12:00;;;;;;;11.20;6.72;;;;;;;10.27;100.00;92607.97;5068354;28;20850;-83
2023/11/02 02:14:43;;;;;;;8.77;5.78;;;;;;;10.48;100.00;92628.22;5066309;28;20508;-85
2023/11/02 02:17:19;;;;;;;9.70;6.60;;;;;;;10.49;100.00;92627.19;5065889;28;20456;-86
2023/11/02 02:20:01;;;;;;;8.60;6.07;;;;;;;10.50;100.00;92624.41;5069503;28;20124;-84
2023/11/02 02:22:34;;;;;;;11.50;8.13;;;;;;;10.48;100.00;92621.31;5065445;28;20045;-85
2023/11/02 02:25:13;;;;;;;16.10;8.82;;;;;;;10.50;100.00;92610.78;5066178;28;20044;-84
2023/11/02 02:27:59;;;;;;;14.13;8.45;;;;;;;10.25;100.00;92578.41;5066440;28;20064;-84
2023/11/02 02:30:51;;;;;;;13.90;8.25;;;;;;;10.06;100.00;92583.63;5071378;28;20052;-83
2023/11/02 02:33:53;;;;;;;13.25;8.07;;;;;;;9.87;100.00;92588.06;5066139;28;20052;-82
2023/11/02 02:36:30;;;;;;;11.93;7.70;;;;;;;9.94;100.00;92593.06;5067834;28;20059;-82
2023/11/02 02:39:05;;;;;;;13.75;8.10;;;;;;;9.96;100.00;92588.53;5068494;28;20056;-82
2023/11/02 02:41:37;;;;;;;12.13;7.93;;;;;;;9.92;100.00;92566.88;5068583;28;20117;-83
2023/11/02 02:44:06;;;;;;;11.98;8.35;;;;;;;9.68;100.00;92518.88;5067214;28;20055;-83
2023/11/02 02:46:35;;;;;;;15.45;9.57;;;;;;;10.16;100.00;92570.25;5066332;28;20443;-82
2023/11/02 02:49:02;;;;;;;13.95;8.07;;;;;;;10.23;100.00;92570.91;5065964;28;20060;-82
2023/11/02 02:51:31;;;;;;;13.27;8.23;;;;;;;10.36;100.00;92571.69;5066647;28;20106;-82
2023/11/02 02:54:02;;;;;;;12.15;7.95;;;;;;;10.25;100.00;92563.00;5067451;28;20048;-82
2023/11/02 02:56:30;;;;;;;13.23;8.57;;;;;;;10.24;100.00;92556.31;5066232;28;20052;-83
2023/11/02 02:59:02;;;;;;;13.90;8.40;;;;;;;10.38;100.00;92590.22;5065540;28;20493;-83
2023/11/02 03:01:34;;;;;;;15.15;8.60;;;;;;;10.45;100.00;92588.34;5068250;28;20106;-84
2023/11/02 03:04:03;;;;;;;12.93;8.30;;;;;;;10.42;100.00;92581.84;5061363;28;20489;-81
2023/11/02 03:06:32;;;;;;;11.48;7.90;;;;;;;10.44;100.00;92571.41;5067110;28;20558;-83
2023/11/02 03:09:01;;;;;;;16.65;9.10;;;;;;;10.49;100.00;92591.25;5067735;28;20098;-83
2023/11/02 03:11:30;;;;;;;15.27;8.80;;;;;;;10.37;100.00;92563.00;5067731;28;20052;-81
2023/11/02 03:14:00;;;;;;;15.70;8.93;;;;;;;10.50;100.00;92585.09;5066105;28;20052;-83
2023/11/02 03:16:34;;;;;;;15.80;8.13;;;;;;;10.59;100.00;92604.31;5065732;28;20514;-83
2023/11/02 03:19:01;;;;;;;10.32;7.30;;;;;;;10.47;100.00;92590.72;5066530;28;20501;-80
2023/11/02 03:21:28;;;;;;;14.10;8.77;;;;;;;10.61;100.00;92611.81;5068264;28;20049;-80
2023/11/02 03:24:05;;;;;;;12.38;7.68;;;;;;;10.68;100.00;92625.31;5069884;28;20102;-80
2023/11/02 03:26:44;;;;;;;17.38;8.73;;;;;;;10.69;100.00;92629.44;5069820;28;20603;-80
2023/11/02 03:29:17;;;;;;;13.38;8.80;;;;;;;10.69;100.00;92635.34;5067823;28;20094;-81
2023/11/02 03:31:53;;;;;;;13.00;8.38;;;;;;;10.41;100.00;92605.19;5065639;28;20052;-80
2023/11/02 03:34:26;;;;;;;13.30;9.00;;;;;;;10.67;100.00;92642.53;5067930;28;20132;-79
2023/11/02 03:37:08;;;;;;;13.05;8.32;;;;;;;10.66;100.00;92628.09;5067610;28;20093;-79
2023/11/02 03:40:04;;;;;;;12.35;8.50;;;;;;;10.64;100.00;92627.53;5067733;28;20159;-83
2023/11/02 03:42:43;;;;;;;14.50;9.48;;;;;;;10.62;100.00;92624.44;5067523;28;20067;-82
2023/11/02 03:45:21;;;;;;;14.93;9.57;;;;;;;10.35;100.00;92585.53;5069991;28;20500;-82
2023/11/02 03:47:58;;;;;;;15.38;9.30;;;;;;;10.46;100.00;92615.59;5066004;28;20041;-83
2023/11/02 03:50:41;;;;;;;13.70;9.35;;;;;;;10.27;100.00;92613.09;5068085;28;20487;-83
2023/11/02 03:53:14;;;;;;;14.38;8.80;;;;;;;10.05;100.00;92600.03;5067059;28;20802;-81
2023/11/02 03:55:51;;;;;;;15.80;9.10;;;;;;;10.15;100.00;92604.63;5062559;28;20045;-82
2023/11/02 03:58:31;;;;;;;13.93;8.90;;;;;;;10.31;100.00;92626.28;5065328;28;20093;-85
2023/11/02 04:01:10;;;;;;;13.98;9.15;;;;;;;10.35;100.00;92617.13;5067266;28;20138;-82
2023/11/02 04:03:44;;;;;;;15.02;9.18;;;;;;;10.35;100.00;92606.88;5067519;28;20090;-83
2023/11/02 04:06:17;;;;;;;15.25;9.32;;;;;;;10.46;100.00;92617.41;5066521;28;20040;-81
2023/11/02 04:08:46;;;;;;;13.30;9.00;;;;;;;10.50;100.00;92613.34;5064432;28;20045;-81
2023/11/02 04:11:28;;;;;;;18.85;8.90;;;;;;;10.35;100.00;92578.63;5070240;28;20123;-82
2023/11/02 04:14:08;;;;;;;13.75;9.07;;;;;;;10.47;100.00;92590.72;5069427;28;20131;-81
2023/11/02 04:16:34;;;;;;;13.85;8.77;;;;;;;10.44;100.00;92609.91;5067078;28;20052;-81
2023/11/02 04:19:04;;;;;;;20.17;10.52;;;;;;;10.08;100.00;92593.66;5065975;28;20044;-81
2023/11/02 04:21:31;;;;;;;16.65;9.88;;;;;;;9.87;100.00;92586.28;5067157;28;20455;-81
2023/11/02 04:23:57;;;;;;;14.77;10.32;;;;;;;9.83;100.00;92566.41;5066427;28;20115;-82
2023/11/02 04:26:53;;;;;;;19.15;10.30;;;;;;;10.16;100.00;92609.53;5065658;28;20053;-82
2023/11/02 04:29:20;;;;;;;21.58;11.52;;;;;;;10.25;100.00;92610.00;5064454;28;20048;-81
2023/11/02 04:31:47;;;;;;;20.33;11.48;;;;;;;10.03;100.00;92566.09;5064481;28;20097;-82
2023/11/02 04:34:14;;;;;;;24.50;12.05;;;;;;;10.15;100.00;92574.59;5067094;28;20102;-84
2023/11/02 04:36:41;;;;;;;18.95;11.60;;;;;;;10.29;100.00;92589.78;5071377;28;20051;-82
2023/11/02 04:39:08;;;;;;;21.08;12.48;;;;;;;9.88;100.00;92531.41;5067712;28;20470;-82
2023/11/02 04:41:36;;;;;;;21.83;13.02;;;;;;;10.10;100.00;92561.63;5071393;28;20048;-83
2023/11/02 04:44:03;;;;;;;31.48;19.20;;;;;;;10.26;100.00;92575.63;5064128;28;20049;-83
2023/11/02 04:46:29;;;;;;;39.95;24.45;;;;;;;10.28;100.00;92580.53;5066022;28;20044;-83
2023/11/02 04:48:56;;;;;;;28.48;17.85;;;;;;;10.16;100.00;92554.84;5071663;28;20512;-85
2023/11/02 04:51:23;;;;;;;20.90;13.30;;;;;;;10.20;100.00;92579.06;5067307;28;20052;-86
2023/11/02 04:53:50;;;;;;;24.50;14.27;;;;;;;10.22;100.00;92581.41;5066622;28;20045;-84
2023/11/02 04:56:18;;;;;;;23.38;13.63;;;;;;;10.28;100.00;92585.66;5066817;28;20110;-84
2023/11/02 04:58:46;;;;;;;23.08;12.55;;;;;;;10.32;100.00;92581.63;5065473;28;20447;-84
2023/11/02 05:01:13;;;;;;;18.67;11.52;;;;;;;10.43;100.00;92591.13;5069431;28;20117;-84
2023/11/02 05:03:40;;;;;;;25.63;14.00;;;;;;;10.48;100.00;92585.34;5067588;28;20049;-83
2023/11/02 05:06:08;;;;;;;20.85;11.35;;;;;;;10.53;100.00;92582.09;5062189;28;20090;-84
2023/11/02 05:08:35;;;;;;;22.63;13.05;;;;;;;10.52;100.00;92580.53;5065786;28;20040;-84
2023/11/02 05:11:02;;;;;;;22.05;12.88;;;;;;;10.51;100.00;92571.28;5065689;28;20052;-85
2023/11/02 05:13:28;;;;;;;19.52;11.77;;;;;;;10.51;100.00;92564.34;5065856;28;20055;-84
2023/11/02 05:15:58;;;;;;;22.80;11.60;;;;;;;10.61;100.00;92568.94;5071201;28;20427;-85
2023/11/02 05:18:25;;;;;;;25.70;13.38;;;;;;;10.54;100.00;92553.63;5066796;28;20125;-85
2023/11/02 05:20:57;;;;;;;24.13;13.23;;;;;;;10.51;100.00;92550.75;5065202;28;20131;-84
2023/11/02 05:23:23;;;;;;;26.20;14.55;;;;;;;10.53;100.00;92538.44;5066746;28;20911;-83
2023/11/02 05:25:50;;;;;;;30.98;16.00;;;;;;;10.77;100.00;92579.50;5065268;28;20052;-83
2023/11/02 05:28:17;;;;;;;25.85;13.60;;;;;;;10.80;100.00;92574.69;5066627;28;20090;-83
2023/11/02 05:30:44;;;;;;;23.65;13.57;;;;;;;10.78;100.00;92574.16;5069074;28;20940;-86
2023/11/02 05:33:12;;;;;;;21.55;12.57;;;;;;;10.82;100.00;92574.47;5065963;28;20090;-87
2023/11/02 05:35:39;;;;;;;22.23;12.02;;;;;;;10.86;100.00;92573.00;5065192;28;20098;-81
2023/11/02 05:38:06;;;;;;;22.58;12.23;;;;;;;10.93;100.00;92583.19;5064476;28;20450;-81
2023/11/02 05:40:32;;;;;;;24.58;11.90;;;;;;;10.90;100.00;92589.53;5065182;28;20066;-82
2023/11/02 05:42:59;;;;;;;17.35;11.52;;;;;;;10.93;100.00;92599.34;5065095;28;20485;-81
2023/11/02 05:45:26;;;;;;;16.02;11.15;;;;;;;10.79;100.00;92578.28;5067426;28;20048;-81
2023/11/02 05:47:52;;;;;;;31.00;13.63;;;;;;;10.88;100.00;92594.13;5065015;28;20209;-82
2023/11/02 05:50:21;;;;;;;25.40;13.35;;;;;;;10.83;100.00;92579.38;5064905;28;20036;-82
2023/11/02 05:52:48;;;;;;;20.98;12.50;;;;;;;10.89;100.00;92584.63;5064117;28;20044;-82
2023/11/02 05:55:14;;;;;;;21.08;12.90;;;;;;;11.05;100.00;92601.13;5066169;28;20040;-81
2023/11/02 05:57:41;;;;;;;20.17;12.80;;;;;;;11.12;100.00;92608.72;5063074;28;20110;-81
2023/11/02 06:00:10;;;;;;;24.60;12.05;;;;;;;11.15;100.00;92598.75;5061277;28;20102;-81
2023/11/02 06:02:37;;;;;;;15.00;11.32;;;;;;;11.00;100.00;92580.47;5062751;28;20123;-82
2023/11/02 06:05:05;;;;;;;21.55;11.90;;;;;;;11.15;100.00;92596.19;5061308;28;21000;-83
2023/11/02 06:07:34;;;;;;;20.65;12.35;;;;;;;11.17;100.00;92598.53;5062164;28;20074;-82
2023/11/02 06:10:01;;;;;;;17.48;11.07;;;;;;;11.15;100.00;92583.31;5065316;28;20044;-85
2023/11/02 06:12:29;;;;;;;14.57;10.32;;;;;;;11.21;100.00;92579.06;5068765;28;20053;-81
2023/11/02 06:14:56;;;;;;;17.95;9.70;;;;;;;11.26;100.00;92584.31;5064348;28;20041;-81
2023/11/02 06:17:23;;;;;;;14.35;9.23;;;;;;;11.32;100.00;92596.25;5068785;28;20048;-81
2023/11/02 06:19:49;;;;;;;14.70;9.13;;;;;;;11.39;100.00;92593.53;5063949;28;20455;-81
2023/11/02 06:22:18;;;;;;;15.82;8.80;;;;;;;11.39;100.00;92600.47;5067761;28;20052;-81
2023/11/02 06:24:46;;;;;;;16.60;8.63;;;;;;;11.44;100.00;92596.19;5061420;28;20082;-81
2023/11/02 06:27:13;;;;;;;16.92;9.93;;;;;;;11.50;100.00;92592.69;5062978;28;20089;-82
2023/11/02 06:29:40;;;;;;;15.60;10.35;;;;;;;11.61;100.00;92601.38;5063937;28;20605;-81
2023/11/02 06:32:07;;;;;;;17.20;10.25;;;;;;;11.55;100.00;92578.38;5062024;28;20098;-83
2023/11/02 06:34:36;;;;;;;15.90;10.65;;;;;;;11.75;100.00;92590.78;5064465;28;20124;-82
2023/11/02 06:37:04;;;;;;;15.30;10.25;;;;;;;11.85;100.00;92592.78;5066306;28;20155;-82
2023/11/02 06:39:31;;;;;;;12.93;9.05;;;;;;;11.94;100.00;92591.38;5065905;28;20044;-83
2023/11/02 06:41:59;;;;;;;15.75;8.93;;;;;;;12.02;100.00;92590.19;5063876;28;20591;-82
2023/11/02 06:44:26;;;;;;;15.55;9.40;;;;;;;11.84;100.00;92544.88;5066312;28;20047;-82
2023/11/02 06:46:53;;;;;;;13.15;8.50;;;;;;;12.16;100.00;92586.34;5063977;28;20052;-82
2023/11/02 06:49:19;;;;;;;14.55;8.75;;;;;;;12.13;100.00;92565.44;5064309;28;20558;-82
2023/11/02 06:51:46;;;;;;;13.05;8.77;;;;;;;12.29;100.00;92589.63;5063182;28;20097;-82
2023/11/02 06:54:13;;;;;;;16.60;8.63;;;;;;;12.36;100.00;92589.47;5066998;28;20102;-83
2023/11/02 06:56:40;;;;;;;14.73;8.82;;;;;;;12.34;100.00;92579.38;5062389;28;20047;-81
2023/11/02 06:59:08;;;;;;;16.85;9.15;;;;;;;12.24;100.00;92562.00;5064736;28;20041;-82
2023/11/02 07:01:36;;;;;;;16.23;9.15;;;;;;;12.35;100.00;92573.22;5064759;28;20048;-82
2023/11/02 07:04:03;;;;;;;13.80;8.32;;;;;;;12.62;100.00;92597.53;5063981;28;20444;-82
2023/11/02 07:06:30;;;;;;;13.43;8.20;;;;;;;12.68;100.00;92597.38;5063683;28;20053;-83
2023/11/02 07:08:57;;;;;;;21.33;10.43;;;;;;;12.70;100.00;92597.13;5066360;28;20090;-82
2023/11/02 07:11:24;;;;;;;19.00;11.70;;;;;;;12.75;100.00;92588.69;5065980;28;20113;-81
2023/11/02 07:13:50;;;;;;;15.65;10.73;;;;;;;12.79;100.00;92584.63;5070917;28;20048;-81
2023/11/02 07:16:19;;;;;;;20.00;11.70;;;;;;;12.81;100.00;92580.78;5066753;28;20060;-81
2023/11/02 07:18:45;;;;;;;23.23;13.10;;;;;;;12.84;100.00;92589.84;5065519;28;20135;-82
2023/11/02 07:21:12;;;;;;;18.23;10.23;;;;;;;12.91;100.00;92597.41;5066061;28;20068;-82
2023/11/02 07:23:39;;;;;;;19.48;11.10;;;;;;;12.98;100.00;92595.41;5065738;28;20097;-82
2023/11/02 07:26:08;;;;;;;14.32;8.95;;;;;;;13.05;100.00;92597.84;5067964;28;20067;-82
2023/11/02 07:28:35;;;;;;;11.23;8.10;;;;;;;13.08;100.00;92602.50;5066931;28;20045;-82
2023/11/02 07:31:06;;;;;;;11.30;8.50;;;;;;;12.92;100.00;92575.75;5066386;28;20040;-82
2023/11/02 07:33:40;;;;;;;12.93;8.13;;;;;;;13.01;100.00;92589.78;5066157;28;20090;-82
2023/11/02 07:36:11;;;;;;;13.05;7.88;;;;;;;12.94;100.00;92577.09;5065121;28;20131;-81
2023/11/02 07:38:38;;;;;;;11.48;6.97;;;;;;;13.09;100.00;92591.94;5069558;28;20129;-82
2023/11/02 07:41:06;;;;;;;12.85;7.65;;;;;;;12.40;100.00;92484.94;5065670;28;20539;-82
2023/11/02 07:43:33;;;;;;;13.45;8.52;;;;;;;13.21;100.00;92593.63;5065719;28;20048;-82
2023/11/02 07:45:59;;;;;;;22.10;12.98;;;;;;;13.20;100.00;92592.84;5065756;28;20480;-82
2023/11/02 07:48:26;;;;;;;33.42;15.38;;;;;;;13.00;100.00;92593.38;5065417;28;20497;-81
2023/11/02 07:50:54;;;;;;;24.35;14.02;;;;;;;12.95;100.00;92588.16;5065322;28;20049;-81
2023/11/02 07:53:21;;;;;;;28.00;16.33;;;;;;;12.32;100.00;92554.88;5064616;28;20079;-82
2023/11/02 07:55:50;;;;;;;26.60;15.98;;;;;;;12.24;100.00;92559.44;5067559;28;20549;-82
2023/11/02 07:58:19;;;;;;;31.50;17.90;;;;;;;12.05;100.00;92551.16;5070769;28;20106;-81
2023/11/02 08:00:46;;;;;;;29.45;17.73;;;;;;;12.06;100.00;92549.34;5065365;28;20090;-82
2023/11/02 08:03:13;;;;;;;29.40;17.33;;;;;;;12.43;100.00;92582.34;5064363;28;20048;-82
2023/11/02 08:05:40;;;;;;;29.17;17.00;;;;;;;12.25;100.00;92550.69;5066765;28;20086;-82
2023/11/02 08:08:10;;;;;;;28.80;16.77;;;;;;;12.54;100.00;92584.03;5068244;28;20130;-81
2023/11/02 08:10:36;;;;;;;26.98;16.02;;;;;;;12.47;100.00;92554.31;5069197;28;20052;-82
2023/11/02 08:13:05;;;;;;;31.10;17.60;;;;;;;12.82;100.00;92576.41;5069823;28;20053;-82
2023/11/02 08:15:34;;;;;;;25.35;15.18;;;;;;;12.94;100.00;92576.28;5068913;28;20493;-80
2023/11/02 08:18:03;;;;;;;27.73;15.90;;;;;;;12.91;100.00;92571.63;5072954;28;20041;-81
2023/11/02 08:20:30;;;;;;;27.38;14.77;;;;;;;12.76;100.00;92575.56;5068519;28;20135;-81
2023/11/02 08:22:56;;;;;;;28.90;16.17;;;;;;;12.76;100.00;92565.25;5068621;28;20045;-81
2023/11/02 08:25:27;;;;;;;27.77;16.38;;;;;;;12.68;100.00;92576.75;5071229;28;20127;-81
2023/11/02 08:27:57;;;;;;;24.38;14.90;;;;;;;12.22;100.00;92527.97;5067465;28;20095;-81
2023/11/02 08:30:24;;;;;;;29.15;14.63;;;;;;;12.59;100.00;92574.81;5067414;28;20166;-81
2023/11/02 08:32:53;;;;;;;25.67;15.07;;;;;;;12.40;100.00;92539.81;5069469;28;20095;-81
2023/11/02 08:35:21;;;;;;;25.02;13.82;;;;;;;12.70;100.00;92559.25;5068385;28;20044;-82
2023/11/02 08:37:48;;;;;;;22.25;14.32;;;;;;;12.87;100.00;92561.00;5068425;28;20072;-82
2023/11/02 08:40:18;;;;;;;26.38;14.43;;;;;;;12.94;100.00;92547.94;5070214;28;20044;-82
2023/11/02 08:42:46;;;;;;;27.15;13.50;;;;;;;13.06;100.00;92543.44;5067454;28;20056;-82
2023/11/02 08:45:14;;;;;;;22.77;14.20;;;;;;;13.27;100.00;92566.88;5069627;28;20439;-79
2023/11/02 08:47:41;;;;;;;27.05;13.48;;;;;;;13.35;100.00;92563.06;5068755;28;20056;-81
2023/11/02 08:50:10;;;;;;;25.95;12.43;;;;;;;13.38;100.00;92559.22;5066907;28;20106;-81
2023/11/02 08:52:37;;;;;;;25.33;13.25;;;;;;;13.51;100.00;92548.53;5067440;28;20378;-81
2023/11/02 08:55:04;;;;;;;26.38;13.02;;;;;;;13.73;100.00;92564.00;5065840;28;20055;-81
2023/11/02 08:57:31;;;;;;;30.15;14.63;;;;;;;13.85;100.00;92538.00;5065327;28;20128;-81
2023/11/02 09:00:00;;;;;;;32.60;13.55;;;;;;;14.05;100.00;92546.94;5063524;28;20094;-81
2023/11/02 09:02:27;;;;;;;29.00;13.48;;;;;;;14.10;100.00;92541.81;5063891;28;20055;-81
2023/11/02 09:04:54;;;;;;;31.75;14.27;;;;;;;14.16;100.00;92545.97;5061965;28;20064;-81
2023/11/02 09:07:21;;;;;;;28.20;13.63;;;;;;;14.23;100.00;92548.34;5063712;28;20899;-81
2023/11/02 09:09:48;;;;;;;33.63;13.85;;;;;;;14.45;100.00;92537.13;5066635;28;20052;-81
2023/11/02 09:12:15;;;;;;;28.40;15.35;;;;;;;14.75;100.00;92532.38;5067805;28;20500;-82
2023/11/02 09:14:41;;;;;;;29.92;13.90;;;;;;;15.04;100.00;92532.00;5068092;28;20605;-82
2023/11/02 09:17:10;;;;;;;25.50;13.55;;;;;;;15.06;100.00;92512.59;5064568;28;20119;-82
2023/11/02 09:19:36;;;;;;;31.65;14.52;;;;;;;15.32;100.00;92525.56;5067460;28;20095;-82
2023/11/02 09:22:03;;;;;;;33.05;14.75;;;;;;;15.35;100.00;92519.13;5066943;28;20101;-82
2023/11/02 09:24:30;;;;;;;26.92;14.13;;;;;;;15.43;100.00;92518.63;5065849;28;20040;-81
2023/11/02 09:26:57;;;;;;;29.50;14.05;;;;;;;15.47;100.00;92524.81;5065763;28;20055;-81
2023/11/02 09:29:24;;;;;;;26.92;13.20;;;;;;;15.60;100.00;92515.78;5071364;28;20529;-82
2023/11/02 09:31:50;;;;;;;32.53;13.68;;;;;;;15.47;100.00;92511.88;5064853;28;20044;-81
2023/11/02 09:34:18;;;;;;;34.95;13.85;;;;;;;15.39;100.00;92509.81;5069372;28;20094;-81
2023/11/02 09:36:45;;;;;;;38.30;12.90;;;;;;;15.10;100.00;92511.03;5064673;28;20077;-81
2023/11/02 09:39:12;;;;;;;33.60;13.30;;;;;;;15.01;100.00;92504.81;5064085;28;20101;-81
2023/11/02 09:41:41;;;;;;;33.10;12.45;;;;;;;15.00;100.00;92487.72;5066378;28;20040;-81
2023/11/02 09:44:08;;;;;;;31.75;13.32;;;;;;;15.10;100.00;92479.22;5066684;28;20463;-81
2023/11/02 09:46:35;;;;;;;30.15;11.68;;;;;;;15.16;100.00;92488.56;5066704;28;20045;-81
2023/11/02 09:49:02;;;;;;;28.65;11.35;;;;;;;15.28;100.00;92480.53;5066881;28;20153;-81
2023/11/02 09:51:31;;;;;;;31.80;13.20;;;;;;;15.27;100.00;92476.41;5067137;28;20094;-82
2023/11/02 09:53:58;;;;;;;23.73;10.80;;;;;;;15.50;100.00;92495.84;5070548;28;20109;-81
2023/11/02 09:56:26;;;;;;;30.45;11.75;;;;;;;15.67;100.00;92488.88;5066955;28;20131;-81
2023/11/02 09:58:54;;;;;;;25.23;10.30;;;;;;;15.73;100.00;92490.41;5065656;28;20048;-82
2023/11/02 10:01:21;;;;;;;20.20;10.40;;;;;;;15.81;100.00;92489.13;5066576;28;20040;-82
2023/11/02 10:03:48;;;;;;;22.55;11.05;;;;;;;15.78;100.00;92487.81;5067709;28;20094;-81
2023/11/02 10:06:16;;;;;;;19.20;10.95;;;;;;;15.82;100.00;92472.53;5067010;28;20660;-82
2023/11/02 10:08:44;;;;;;;27.48;11.85;;;;;;;15.60;100.00;92451.06;5062655;28;20048;-81
2023/11/02 10:11:12;;;;;;;24.42;11.23;;;;;;;15.99;100.00;92475.69;5067187;28;20044;-81
2023/11/02 10:13:39;;;;;;;31.55;12.73;;;;;;;15.93;100.00;92463.00;5065227;28;20126;-81
2023/11/02 10:16:06;;;;;;;31.80;11.55;;;;;;;15.77;100.00;92466.34;5066017;28;20118;-81
2023/11/02 10:18:33;;;;;;;40.10;13.35;;;;;;;15.61;100.00;92457.03;5065983;28;20058;-81
2023/11/02 10:21:05;;;;;;;29.90;11.30;;;;;;;15.75;100.00;92457.28;5066576;28;20459;-81
2023/11/02 10:23:51;;;;;;;21.90;9.23;;;;;;;15.79;100.00;92462.72;5066739;28;20084;-80
2023/11/02 10:26:19;;;;;;;19.02;8.85;;;;;;;15.85;100.00;92474.63;5068709;28;20071;-80
2023/11/02 10:28:46;;;;;;;25.05;9.10;;;;;;;16.02;100.00;92469.22;5065488;28;20052;-80
2023/11/02 10:31:17;;;;;;;17.80;8.50;;;;;;;15.65;100.00;92481.38;5065076;28;20358;-81
2023/11/02 10:33:44;;;;;;;16.65;8.77;;;;;;;15.56;100.00;92477.75;5066167;28;20436;-80
2023/11/02 10:36:10;;;;;;;17.38;7.05;;;;;;;15.38;100.00;92473.84;5065915;28;20048;-81
2023/11/02 10:38:37;;;;;;;14.80;8.60;;;;;;;15.03;100.00;92440.69;5065382;28;20048;-81
2023/11/02 10:41:07;;;;;;;11.38;7.47;;;;;;;15.42;100.00;92472.28;5068427;28;20082;-81
2023/11/02 10:43:37;;;;;;;9.38;5.88;;;;;;;14.60;100.00;92448.56;5067014;28;20649;-81
2023/11/02 10:46:06;;;;;;;10.48;7.05;;;;;;;14.51;100.00;92468.94;5066877;28;20060;-79
2023/11/02 10:48:39;;;;;;;12.07;6.30;;;;;;;14.34;100.00;92443.28;5066157;28;20180;-80
2023/11/02 10:51:11;;;;;;;10.02;7.28;;;;;;;14.60;100.00;92465.84;5066338;28;20048;-79
2023/11/02 10:53:50;;;;;;;11.65;7.07;;;;;;;14.40;100.00;92457.00;5067248;28;20052;-79
2023/11/02 10:56:22;;;;;;;10.55;6.82;;;;;;;14.16;100.00;92453.00;5063517;28;20049;-79
2023/11/02 10:58:50;;;;;;;8.88;6.07;;;;;;;13.80;100.00;92442.44;5064140;28;20097;-79
2023/11/02 11:01:17;;;;;;;9.75;6.30;;;;;;;13.81;100.00;92445.81;5064747;28;20101;-79
2023/11/02 11:03:46;;;;;;;10.20;6.50;;;;;;;13.79;100.00;92446.06;5067713;28;20780;-79
2023/11/02 11:06:14;;;;;;;11.18;7.07;;;;;;;13.95;100.00;92446.94;5064901;28;20102;-79
2023/11/02 11:08:43;;;;;;;15.10;10.10;;;;;;;13.92;100.00;92436.34;5066973;28;20056;-79
2023/11/02 11:11:11;;;;;;;11.95;7.65;;;;;;;14.09;100.00;92418.88;5065397;28;20075;-80
2023/11/02 11:13:40;;;;;;;8.80;6.90;;;;;;;14.11;100.00;92426.34;5064078;28;20514;-79
2023/11/02 11:16:09;;;;;;;10.43;6.72;;;;;;;14.18;100.00;92413.22;5060685;28;20056;-80
2023/11/02 11:18:36;;;;;;;11.48;7.43;;;;;;;14.55;100.00;92430.44;5060611;28;20599;-80
2023/11/02 11:21:05;;;;;;;12.88;6.97;;;;;;;14.66;100.00;92424.28;5059348;28;20101;-80
2023/11/02 11:23:36;;;;;;;8.55;5.70;;;;;;;14.79;100.00;92406.75;5062512;28;20098;-80
2023/11/02 11:26:06;;;;;;;9.25;6.20;;;;;;;15.10;100.00;92423.09;5064479;28;20110;-80
2023/11/02 11:28:35;;;;;;;8.32;5.93;;;;;;;15.43;100.00;92414.31;5057526;28;20064;-80
2023/11/02 11:31:03;;;;;;;7.88;6.32;;;;;;;15.70;100.00;92414.03;5059760;28;20048;-80